sensor_id;sensor_type;location;lat;lon;timestamp;P1;durP1;ratioP1;P2;durP2;ratioP2
18230;SDS011;9240;49.966;21.994;2024-02-21T00:01:39;11.83;;;6.53;;
18230;SDS011;9240;49.966;21.994;2024-02-21T00:04:04;14.00;;;7.00;;
18230;SDS011;9240;49.966;21.994;2024-02-21T00:06:30;11.47;;;7.10;;
18230;SDS011;9240;49.966;21.994;2024-02-21T00:08:57;14.80;;;8.17;;
18230;SDS011;9240;49.966;21.994;2024-02-21T00:11:23;13.43;;;7.90;;
18230;SDS011;9240;49.966;21.994;2024-02-21T00:13:48;12.17;;;6.77;;
18230;SDS011;9240;49.966;21.994;2024-02-21T00:16:14;10.17;;;6.37;;
18230;SDS011;9240;49.966;21.994;2024-02-21T00:18:39;10.97;;;6.00;;
18230;SDS011;9240;49.966;21.994;2024-02-21T00:21:05;11.10;;;6.70;;
18230;SDS011;9240;49.966;21.994;2024-02-21T00:23:30;11.20;;;6.40;;
18230;SDS011;9240;49.966;21.994;2024-02-21T00:25:57;11.20;;;7.17;;
18230;SDS011;9240;49.966;21.994;2024-02-21T00:28:23;10.40;;;6.77;;
18230;SDS011;9240;49.966;21.994;2024-02-21T00:30:48;10.50;;;6.57;;
18230;SDS011;9240;49.966;21.994;2024-02-21T00:33:14;10.73;;;6.43;;
18230;SDS011;9240;49.966;21.994;2024-02-21T00:35:39;11.47;;;7.10;;
18230;SDS011;9240;49.966;21.994;2024-02-21T00:38:05;14.27;;;7.67;;
18230;SDS011;9240;49.966;21.994;2024-02-21T00:40:31;10.53;;;6.67;;
18230;SDS011;9240;49.966;21.994;2024-02-21T00:42:57;10.87;;;6.90;;
18230;SDS011;9240;49.966;21.994;2024-02-21T00:45:23;13.00;;;7.17;;
18230;SDS011;9240;49.966;21.994;2024-02-21T00:47:49;10.50;;;6.43;;
18230;SDS011;9240;49.966;21.994;2024-02-21T00:50:14;13.10;;;6.63;;
18230;SDS011;9240;49.966;21.994;2024-02-21T00:52:40;14.07;;;8.33;;
18230;SDS011;9240;49.966;21.994;2024-02-21T00:55:06;13.33;;;7.40;;
18230;SDS011;9240;49.966;21.994;2024-02-21T00:57:32;10.73;;;7.07;;
18230;SDS011;9240;49.966;21.994;2024-02-21T00:59:59;12.20;;;7.67;;
18230;SDS011;9240;49.966;21.994;2024-02-21T01:02:25;12.90;;;7.23;;
18230;SDS011;9240;49.966;21.994;2024-02-21T01:04:51;14.13;;;8.13;;
18230;SDS011;9240;49.966;21.994;2024-02-21T01:07:16;13.63;;;8.23;;
18230;SDS011;9240;49.966;21.994;2024-02-21T01:09:42;13.17;;;7.47;;
18230;SDS011;9240;49.966;21.994;2024-02-21T01:12:08;12.27;;;7.57;;
18230;SDS011;9240;49.966;21.994;2024-02-21T01:14:33;13.13;;;7.77;;
18230;SDS011;9240;49.966;21.994;2024-02-21T01:17:00;12.60;;;7.77;;
18230;SDS011;9240;49.966;21.994;2024-02-21T01:19:26;11.90;;;6.93;;
18230;SDS011;9240;49.966;21.994;2024-02-21T01:21:51;13.70;;;8.03;;
18230;SDS011;9240;49.966;21.994;2024-02-21T01:24:17;12.27;;;8.17;;
18230;SDS011;9240;49.966;21.994;2024-02-21T01:26:42;12.93;;;7.40;;
18230;SDS011;9240;49.966;21.994;2024-02-21T01:29:08;14.53;;;8.70;;
18230;SDS011;9240;49.966;21.994;2024-02-21T01:31:33;16.03;;;8.40;;
18230;SDS011;9240;49.966;21.994;2024-02-21T01:34:00;14.47;;;8.27;;
18230;SDS011;9240;49.966;21.994;2024-02-21T01:36:26;12.43;;;7.73;;
18230;SDS011;9240;49.966;21.994;2024-02-21T01:38:51;14.10;;;8.37;;
18230;SDS011;9240;49.966;21.994;2024-02-21T01:41:17;14.27;;;8.47;;
18230;SDS011;9240;49.966;21.994;2024-02-21T01:43:42;14.43;;;8.40;;
18230;SDS011;9240;49.966;21.994;2024-02-21T01:46:08;16.00;;;8.60;;
18230;SDS011;9240;49.966;21.994;2024-02-21T01:48:34;12.43;;;8.30;;
18230;SDS011;9240;49.966;21.994;2024-02-21T01:51:01;13.13;;;7.97;;
18230;SDS011;9240;49.966;21.994;2024-02-21T01:53:29;12.50;;;8.30;;
18230;SDS011;9240;49.966;21.994;2024-02-21T01:55:55;12.40;;;8.13;;
18230;SDS011;9240;49.966;21.994;2024-02-21T01:58:21;14.80;;;8.60;;
18230;SDS011;9240;49.966;21.994;2024-02-21T02:00:48;13.23;;;8.03;;
18230;SDS011;9240;49.966;21.994;2024-02-21T02:03:15;13.80;;;8.60;;
18230;SDS011;9240;49.966;21.994;2024-02-21T02:05:41;12.90;;;7.73;;
18230;SDS011;9240;49.966;21.994;2024-02-21T02:08:08;15.50;;;8.07;;
18230;SDS011;9240;49.966;21.994;2024-02-21T02:10:33;12.47;;;7.77;;
18230;SDS011;9240;49.966;21.994;2024-02-21T02:12:59;13.27;;;7.57;;
18230;SDS011;9240;49.966;21.994;2024-02-21T02:15:25;13.80;;;7.20;;
18230;SDS011;9240;49.966;21.994;2024-02-21T02:17:50;10.60;;;6.80;;
18230;SDS011;9240;49.966;21.994;2024-02-21T02:20:16;12.07;;;7.43;;
18230;SDS011;9240;49.966;21.994;2024-02-21T02:22:41;11.43;;;6.97;;
18230;SDS011;9240;49.966;21.994;2024-02-21T02:25:10;12.57;;;7.33;;
18230;SDS011;9240;49.966;21.994;2024-02-21T02:27:43;13.13;;;6.83;;
18230;SDS011;9240;49.966;21.994;2024-02-21T02:30:10;15.43;;;6.83;;
18230;SDS011;9240;49.966;21.994;2024-02-21T02:32:36;10.03;;;6.33;;
18230;SDS011;9240;49.966;21.994;2024-02-21T02:35:02;13.90;;;6.13;;
18230;SDS011;9240;49.966;21.994;2024-02-21T02:37:28;11.90;;;5.90;;
18230;SDS011;9240;49.966;21.994;2024-02-21T02:39:53;9.20;;;5.80;;
18230;SDS011;9240;49.966;21.994;2024-02-21T02:42:20;13.50;;;6.50;;
18230;SDS011;9240;49.966;21.994;2024-02-21T02:44:46;11.17;;;6.63;;
18230;SDS011;9240;49.966;21.994;2024-02-21T02:47:11;15.73;;;7.23;;
18230;SDS011;9240;49.966;21.994;2024-02-21T02:49:37;11.93;;;6.50;;
18230;SDS011;9240;49.966;21.994;2024-02-21T02:52:02;12.53;;;6.50;;
18230;SDS011;9240;49.966;21.994;2024-02-21T02:54:28;11.53;;;6.70;;
18230;SDS011;9240;49.966;21.994;2024-02-21T02:56:54;13.00;;;6.43;;
18230;SDS011;9240;49.966;21.994;2024-02-21T02:59:21;10.33;;;6.37;;
18230;SDS011;9240;49.966;21.994;2024-02-21T03:01:46;12.50;;;6.60;;
18230;SDS011;9240;49.966;21.994;2024-02-21T03:04:12;13.57;;;6.30;;
18230;SDS011;9240;49.966;21.994;2024-02-21T03:06:37;12.30;;;6.37;;
18230;SDS011;9240;49.966;21.994;2024-02-21T03:09:03;14.63;;;7.03;;
18230;SDS011;9240;49.966;21.994;2024-02-21T03:11:29;12.57;;;6.27;;
18230;SDS011;9240;49.966;21.994;2024-02-21T03:13:54;10.50;;;6.13;;
18230;SDS011;9240;49.966;21.994;2024-02-21T03:16:21;12.03;;;5.87;;
18230;SDS011;9240;49.966;21.994;2024-02-21T03:18:47;12.77;;;6.03;;
18230;SDS011;9240;49.966;21.994;2024-02-21T03:21:12;12.67;;;6.27;;
18230;SDS011;9240;49.966;21.994;2024-02-21T03:23:38;12.37;;;6.03;;
18230;SDS011;9240;49.966;21.994;2024-02-21T03:26:04;11.73;;;5.37;;
18230;SDS011;9240;49.966;21.994;2024-02-21T03:28:29;14.00;;;5.37;;
18230;SDS011;9240;49.966;21.994;2024-02-21T03:30:55;15.73;;;5.97;;
18230;SDS011;9240;49.966;21.994;2024-02-21T03:33:22;11.47;;;5.00;;
18230;SDS011;9240;49.966;21.994;2024-02-21T03:35:47;15.07;;;6.50;;
18230;SDS011;9240;49.966;21.994;2024-02-21T03:38:13;15.77;;;8.17;;
18230;SDS011;9240;49.966;21.994;2024-02-21T03:40:38;16.27;;;8.47;;
18230;SDS011;9240;49.966;21.994;2024-02-21T03:43:04;15.37;;;8.63;;
18230;SDS011;9240;49.966;21.994;2024-02-21T03:45:29;18.20;;;7.50;;
18230;SDS011;9240;49.966;21.994;2024-02-21T03:47:55;14.47;;;6.93;;
18230;SDS011;9240;49.966;21.994;2024-02-21T03:50:22;13.07;;;5.90;;
18230;SDS011;9240;49.966;21.994;2024-02-21T03:52:47;14.67;;;6.00;;
18230;SDS011;9240;49.966;21.994;2024-02-21T03:55:13;9.43;;;5.40;;
18230;SDS011;9240;49.966;21.994;2024-02-21T03:57:38;19.87;;;6.37;;
18230;SDS011;9240;49.966;21.994;2024-02-21T04:00:05;14.43;;;5.90;;
18230;SDS011;9240;49.966;21.994;2024-02-21T04:02:31;18.93;;;5.57;;
18230;SDS011;9240;49.966;21.994;2024-02-21T04:04:56;13.30;;;5.77;;
18230;SDS011;9240;49.966;21.994;2024-02-21T04:07:23;11.80;;;5.10;;
18230;SDS011;9240;49.966;21.994;2024-02-21T04:09:49;10.63;;;5.30;;
18230;SDS011;9240;49.966;21.994;2024-02-21T04:12:14;8.67;;;4.90;;
18230;SDS011;9240;49.966;21.994;2024-02-21T04:14:40;12.97;;;4.90;;
18230;SDS011;9240;49.966;21.994;2024-02-21T04:17:06;11.63;;;5.00;;
18230;SDS011;9240;49.966;21.994;2024-02-21T04:19:32;9.80;;;5.00;;
18230;SDS011;9240;49.966;21.994;2024-02-21T04:21:57;11.80;;;5.17;;
18230;SDS011;9240;49.966;21.994;2024-02-21T04:24:24;10.20;;;4.30;;
18230;SDS011;9240;49.966;21.994;2024-02-21T04:26:50;10.40;;;4.53;;
18230;SDS011;9240;49.966;21.994;2024-02-21T04:29:15;10.90;;;4.83;;
18230;SDS011;9240;49.966;21.994;2024-02-21T04:31:41;10.43;;;4.40;;
18230;SDS011;9240;49.966;21.994;2024-02-21T04:34:06;13.13;;;5.07;;
18230;SDS011;9240;49.966;21.994;2024-02-21T04:36:32;8.50;;;4.50;;
18230;SDS011;9240;49.966;21.994;2024-02-21T04:38:57;7.93;;;4.17;;
18230;SDS011;9240;49.966;21.994;2024-02-21T04:41:25;13.70;;;5.20;;
18230;SDS011;9240;49.966;21.994;2024-02-21T04:43:50;13.33;;;5.43;;
18230;SDS011;9240;49.966;21.994;2024-02-21T04:46:16;12.20;;;5.50;;
18230;SDS011;9240;49.966;21.994;2024-02-21T04:48:42;13.60;;;5.50;;
18230;SDS011;9240;49.966;21.994;2024-02-21T04:51:07;18.63;;;6.90;;
18230;SDS011;9240;49.966;21.994;2024-02-21T04:53:33;19.90;;;7.37;;
18230;SDS011;9240;49.966;21.994;2024-02-21T04:55:59;24.17;;;10.47;;
18230;SDS011;9240;49.966;21.994;2024-02-21T04:58:26;48.17;;;20.60;;
18230;SDS011;9240;49.966;21.994;2024-02-21T05:00:51;74.47;;;32.40;;
18230;SDS011;9240;49.966;21.994;2024-02-21T05:03:17;129.27;;;61.00;;
18230;SDS011;9240;49.966;21.994;2024-02-21T05:05:42;127.80;;;59.17;;
18230;SDS011;9240;49.966;21.994;2024-02-21T05:08:09;78.97;;;39.53;;
18230;SDS011;9240;49.966;21.994;2024-02-21T05:10:34;19.67;;;9.30;;
18230;SDS011;9240;49.966;21.994;2024-02-21T05:13:00;11.83;;;5.53;;
18230;SDS011;9240;49.966;21.994;2024-02-21T05:15:27;18.03;;;8.77;;
18230;SDS011;9240;49.966;21.994;2024-02-21T05:17:53;25.47;;;10.30;;
18230;SDS011;9240;49.966;21.994;2024-02-21T05:20:19;21.60;;;7.83;;
18230;SDS011;9240;49.966;21.994;2024-02-21T05:22:44;19.27;;;7.63;;
18230;SDS011;9240;49.966;21.994;2024-02-21T05:25:10;11.87;;;5.07;;
18230;SDS011;9240;49.966;21.994;2024-02-21T05:27:35;11.87;;;5.00;;
18230;SDS011;9240;49.966;21.994;2024-02-21T05:30:01;10.77;;;5.07;;
18230;SDS011;9240;49.966;21.994;2024-02-21T05:32:31;12.00;;;5.27;;
18230;SDS011;9240;49.966;21.994;2024-02-21T05:34:56;11.23;;;4.70;;
18230;SDS011;9240;49.966;21.994;2024-02-21T05:37:22;12.13;;;4.40;;
18230;SDS011;9240;49.966;21.994;2024-02-21T05:39:47;10.20;;;5.03;;
18230;SDS011;9240;49.966;21.994;2024-02-21T05:42:13;11.63;;;5.00;;
18230;SDS011;9240;49.966;21.994;2024-02-21T05:44:39;10.97;;;5.03;;
18230;SDS011;9240;49.966;21.994;2024-02-21T05:47:04;14.83;;;6.10;;
18230;SDS011;9240;49.966;21.994;2024-02-21T05:49:31;15.33;;;6.40;;
18230;SDS011;9240;49.966;21.994;2024-02-21T05:51:57;24.70;;;12.90;;
18230;SDS011;9240;49.966;21.994;2024-02-21T05:54:22;43.57;;;21.33;;
18230;SDS011;9240;49.966;21.994;2024-02-21T05:56:48;61.73;;;29.67;;
18230;SDS011;9240;49.966;21.994;2024-02-21T05:59:13;76.93;;;33.60;;
18230;SDS011;9240;49.966;21.994;2024-02-21T06:01:39;40.97;;;18.20;;
18230;SDS011;9240;49.966;21.994;2024-02-21T06:04:04;72.27;;;28.53;;
18230;SDS011;9240;49.966;21.994;2024-02-21T06:06:32;96.70;;;37.70;;
18230;SDS011;9240;49.966;21.994;2024-02-21T06:08:57;41.97;;;16.97;;
18230;SDS011;9240;49.966;21.994;2024-02-21T06:11:23;66.73;;;25.93;;
18230;SDS011;9240;49.966;21.994;2024-02-21T06:13:48;106.00;;;39.60;;
18230;SDS011;9240;49.966;21.994;2024-02-21T06:16:14;34.23;;;13.80;;
18230;SDS011;9240;49.966;21.994;2024-02-21T06:18:39;17.13;;;7.10;;
18230;SDS011;9240;49.966;21.994;2024-02-21T06:21:05;15.40;;;7.47;;
18230;SDS011;9240;49.966;21.994;2024-02-21T06:23:32;33.47;;;15.00;;
18230;SDS011;9240;49.966;21.994;2024-02-21T06:25:58;44.40;;;18.70;;
18230;SDS011;9240;49.966;21.994;2024-02-21T06:28:23;33.27;;;15.27;;
18230;SDS011;9240;49.966;21.994;2024-02-21T06:30:49;57.17;;;24.77;;
18230;SDS011;9240;49.966;21.994;2024-02-21T06:33:15;50.13;;;20.30;;
18230;SDS011;9240;49.966;21.994;2024-02-21T06:35:40;22.67;;;10.97;;
18230;SDS011;9240;49.966;21.994;2024-02-21T06:38:06;27.67;;;10.70;;
18230;SDS011;9240;49.966;21.994;2024-02-21T06:40:33;16.70;;;6.53;;
18230;SDS011;9240;49.966;21.994;2024-02-21T06:42:58;11.67;;;5.47;;
18230;SDS011;9240;49.966;21.994;2024-02-21T06:45:24;10.50;;;5.10;;
18230;SDS011;9240;49.966;21.994;2024-02-21T06:47:49;10.60;;;4.80;;
18230;SDS011;9240;49.966;21.994;2024-02-21T06:50:15;14.17;;;5.40;;
18230;SDS011;9240;49.966;21.994;2024-02-21T06:52:41;14.23;;;5.30;;
18230;SDS011;9240;49.966;21.994;2024-02-21T06:55:07;8.90;;;5.30;;
18230;SDS011;9240;49.966;21.994;2024-02-21T06:57:34;19.43;;;9.07;;
18230;SDS011;9240;49.966;21.994;2024-02-21T07:00:00;19.40;;;8.83;;
18230;SDS011;9240;49.966;21.994;2024-02-21T07:02:25;19.20;;;9.00;;
18230;SDS011;9240;49.966;21.994;2024-02-21T07:04:52;14.10;;;5.77;;
18230;SDS011;9240;49.966;21.994;2024-02-21T07:07:18;15.77;;;5.90;;
18230;SDS011;9240;49.966;21.994;2024-02-21T07:09:45;14.07;;;5.53;;
18230;SDS011;9240;49.966;21.994;2024-02-21T07:12:10;14.47;;;5.80;;
18230;SDS011;9240;49.966;21.994;2024-02-21T07:14:37;13.97;;;5.70;;
18230;SDS011;9240;49.966;21.994;2024-02-21T07:17:03;10.33;;;5.30;;
18230;SDS011;9240;49.966;21.994;2024-02-21T07:19:29;15.80;;;5.50;;
18230;SDS011;9240;49.966;21.994;2024-02-21T07:21:54;14.43;;;5.30;;
18230;SDS011;9240;49.966;21.994;2024-02-21T07:24:20;12.83;;;5.33;;
18230;SDS011;9240;49.966;21.994;2024-02-21T07:26:46;14.10;;;5.90;;
18230;SDS011;9240;49.966;21.994;2024-02-21T07:29:11;14.00;;;5.73;;
18230;SDS011;9240;49.966;21.994;2024-02-21T07:31:42;15.73;;;5.67;;
18230;SDS011;9240;49.966;21.994;2024-02-21T07:34:09;12.30;;;5.57;;
18230;SDS011;9240;49.966;21.994;2024-02-21T07:36:35;15.03;;;5.37;;
18230;SDS011;9240;49.966;21.994;2024-02-21T07:39:00;12.53;;;5.67;;
18230;SDS011;9240;49.966;21.994;2024-02-21T07:41:26;12.37;;;5.27;;
18230;SDS011;9240;49.966;21.994;2024-02-21T07:43:52;15.60;;;5.60;;
18230;SDS011;9240;49.966;21.994;2024-02-21T07:46:17;15.10;;;5.77;;
18230;SDS011;9240;49.966;21.994;2024-02-21T07:48:45;12.50;;;5.63;;
18230;SDS011;9240;49.966;21.994;2024-02-21T07:51:11;11.97;;;5.23;;
18230;SDS011;9240;49.966;21.994;2024-02-21T07:53:36;12.60;;;5.20;;
18230;SDS011;9240;49.966;21.994;2024-02-21T07:56:05;15.23;;;5.63;;
18230;SDS011;9240;49.966;21.994;2024-02-21T07:58:31;13.73;;;5.80;;
18230;SDS011;9240;49.966;21.994;2024-02-21T08:00:58;12.20;;;6.13;;
18230;SDS011;9240;49.966;21.994;2024-02-21T08:03:23;17.90;;;6.53;;
18230;SDS011;9240;49.966;21.994;2024-02-21T08:05:50;14.30;;;6.33;;
18230;SDS011;9240;49.966;21.994;2024-02-21T08:08:16;15.27;;;5.80;;
18230;SDS011;9240;49.966;21.994;2024-02-21T08:10:41;12.47;;;5.47;;
18230;SDS011;9240;49.966;21.994;2024-02-21T08:13:07;13.93;;;6.00;;
18230;SDS011;9240;49.966;21.994;2024-02-21T08:15:32;16.47;;;6.10;;
18230;SDS011;9240;49.966;21.994;2024-02-21T08:17:58;14.43;;;5.93;;
18230;SDS011;9240;49.966;21.994;2024-02-21T08:20:24;16.73;;;5.73;;
18230;SDS011;9240;49.966;21.994;2024-02-21T08:22:51;14.37;;;5.70;;
18230;SDS011;9240;49.966;21.994;2024-02-21T08:25:16;12.13;;;5.10;;
18230;SDS011;9240;49.966;21.994;2024-02-21T08:27:42;14.13;;;4.70;;
18230;SDS011;9240;49.966;21.994;2024-02-21T08:30:08;12.07;;;4.77;;
18230;SDS011;9240;49.966;21.994;2024-02-21T08:32:36;10.57;;;4.77;;
18230;SDS011;9240;49.966;21.994;2024-02-21T08:35:01;11.00;;;4.67;;
18230;SDS011;9240;49.966;21.994;2024-02-21T08:37:27;10.27;;;4.90;;
18230;SDS011;9240;49.966;21.994;2024-02-21T08:39:54;13.03;;;5.03;;
18230;SDS011;9240;49.966;21.994;2024-02-21T08:42:20;10.23;;;4.10;;
18230;SDS011;9240;49.966;21.994;2024-02-21T08:44:45;14.47;;;4.30;;
18230;SDS011;9240;49.966;21.994;2024-02-21T08:47:11;11.67;;;4.70;;
18230;SDS011;9240;49.966;21.994;2024-02-21T08:49:37;9.90;;;4.57;;
18230;SDS011;9240;49.966;21.994;2024-02-21T08:52:02;11.30;;;4.60;;
18230;SDS011;9240;49.966;21.994;2024-02-21T08:54:28;10.03;;;4.23;;
18230;SDS011;9240;49.966;21.994;2024-02-21T08:56:55;11.70;;;4.27;;
18230;SDS011;9240;49.966;21.994;2024-02-21T08:59:21;9.40;;;4.30;;
18230;SDS011;9240;49.966;21.994;2024-02-21T09:01:46;12.70;;;4.50;;
18230;SDS011;9240;49.966;21.994;2024-02-21T09:04:12;13.07;;;4.60;;
18230;SDS011;9240;49.966;21.994;2024-02-21T09:06:38;10.47;;;4.10;;
18230;SDS011;9240;49.966;21.994;2024-02-21T09:09:03;13.50;;;4.60;;
18230;SDS011;9240;49.966;21.994;2024-02-21T09:11:29;11.37;;;4.03;;
18230;SDS011;9240;49.966;21.994;2024-02-21T09:13:56;11.33;;;4.23;;
18230;SDS011;9240;49.966;21.994;2024-02-21T09:16:22;13.57;;;4.50;;
18230;SDS011;9240;49.966;21.994;2024-02-21T09:18:47;12.37;;;4.30;;
18230;SDS011;9240;49.966;21.994;2024-02-21T09:21:13;12.07;;;4.40;;
18230;SDS011;9240;49.966;21.994;2024-02-21T09:23:38;10.07;;;3.53;;
18230;SDS011;9240;49.966;21.994;2024-02-21T09:26:04;8.87;;;3.50;;
18230;SDS011;9240;49.966;21.994;2024-02-21T09:28:30;11.57;;;3.93;;
18230;SDS011;9240;49.966;21.994;2024-02-21T09:30:57;13.37;;;3.80;;
18230;SDS011;9240;49.966;21.994;2024-02-21T09:33:22;11.20;;;3.80;;
18230;SDS011;9240;49.966;21.994;2024-02-21T09:35:48;12.83;;;4.23;;
18230;SDS011;9240;49.966;21.994;2024-02-21T09:38:13;10.70;;;3.43;;
18230;SDS011;9240;49.966;21.994;2024-02-21T09:40:39;6.97;;;3.33;;
18230;SDS011;9240;49.966;21.994;2024-02-21T09:43:05;10.77;;;3.20;;
18230;SDS011;9240;49.966;21.994;2024-02-21T09:45:30;11.87;;;4.73;;
18230;SDS011;9240;49.966;21.994;2024-02-21T09:48:02;11.67;;;3.60;;
18230;SDS011;9240;49.966;21.994;2024-02-21T09:50:38;13.17;;;3.77;;
18230;SDS011;9240;49.966;21.994;2024-02-21T09:53:05;9.67;;;3.90;;
18230;SDS011;9240;49.966;21.994;2024-02-21T09:55:32;12.00;;;3.80;;
18230;SDS011;9240;49.966;21.994;2024-02-21T09:57:59;9.90;;;3.60;;
18230;SDS011;9240;49.966;21.994;2024-02-21T10:00:26;7.07;;;3.20;;
18230;SDS011;9240;49.966;21.994;2024-02-21T10:02:51;8.57;;;3.40;;
18230;SDS011;9240;49.966;21.994;2024-02-21T10:05:18;10.83;;;3.13;;
18230;SDS011;9240;49.966;21.994;2024-02-21T10:07:44;8.67;;;3.30;;
18230;SDS011;9240;49.966;21.994;2024-02-21T10:10:10;11.02;;;3.55;;
18230;SDS011;9240;49.966;21.994;2024-02-21T10:12:35;10.27;;;3.47;;
18230;SDS011;9240;49.966;21.994;2024-02-21T10:15:01;8.07;;;3.73;;
18230;SDS011;9240;49.966;21.994;2024-02-21T10:17:27;7.63;;;3.50;;
18230;SDS011;9240;49.966;21.994;2024-02-21T10:19:53;8.85;;;3.35;;
18230;SDS011;9240;49.966;21.994;2024-02-21T10:22:20;9.40;;;2.88;;
18230;SDS011;9240;49.966;21.994;2024-02-21T10:24:45;8.35;;;2.97;;
18230;SDS011;9240;49.966;21.994;2024-02-21T10:27:11;7.40;;;2.92;;
18230;SDS011;9240;49.966;21.994;2024-02-21T10:29:37;8.88;;;3.10;;
18230;SDS011;9240;49.966;21.994;2024-02-21T10:32:06;8.98;;;3.05;;
18230;SDS011;9240;49.966;21.994;2024-02-21T10:34:32;9.70;;;3.22;;
18230;SDS011;9240;49.966;21.994;2024-02-21T10:37:01;7.72;;;2.95;;
18230;SDS011;9240;49.966;21.994;2024-02-21T10:39:29;10.77;;;3.08;;
18230;SDS011;9240;49.966;21.994;2024-02-21T10:41:55;8.32;;;2.80;;
18230;SDS011;9240;49.966;21.994;2024-02-21T10:44:24;8.52;;;2.72;;
18230;SDS011;9240;49.966;21.994;2024-02-21T10:46:53;7.22;;;3.10;;
18230;SDS011;9240;49.966;21.994;2024-02-21T10:49:22;7.30;;;2.70;;
18230;SDS011;9240;49.966;21.994;2024-02-21T10:51:49;8.20;;;3.03;;
18230;SDS011;9240;49.966;21.994;2024-02-21T10:54:22;6.97;;;3.35;;
18230;SDS011;9240;49.966;21.994;2024-02-21T10:57:10;6.85;;;2.80;;
18230;SDS011;9240;49.966;21.994;2024-02-21T10:59:37;6.35;;;2.80;;
18230;SDS011;9240;49.966;21.994;2024-02-21T11:02:05;5.10;;;2.70;;
18230;SDS011;9240;49.966;21.994;2024-02-21T11:04:30;4.78;;;2.33;;
18230;SDS011;9240;49.966;21.994;2024-02-21T11:06:58;7.15;;;3.00;;
18230;SDS011;9240;49.966;21.994;2024-02-21T11:09:29;7.70;;;2.95;;
18230;SDS011;9240;49.966;21.994;2024-02-21T11:11:55;7.70;;;2.75;;
18230;SDS011;9240;49.966;21.994;2024-02-21T11:14:22;5.70;;;2.58;;
18230;SDS011;9240;49.966;21.994;2024-02-21T11:16:52;7.88;;;3.13;;
18230;SDS011;9240;49.966;21.994;2024-02-21T11:19:20;7.78;;;2.42;;
18230;SDS011;9240;49.966;21.994;2024-02-21T11:21:47;7.07;;;2.22;;
18230;SDS011;9240;49.966;21.994;2024-02-21T11:24:13;4.55;;;2.42;;
18230;SDS011;9240;49.966;21.994;2024-02-21T11:26:39;8.43;;;2.58;;
18230;SDS011;9240;49.966;21.994;2024-02-21T11:29:13;6.97;;;2.70;;
18230;SDS011;9240;49.966;21.994;2024-02-21T11:31:48;5.57;;;2.38;;
18230;SDS011;9240;49.966;21.994;2024-02-21T11:34:17;5.72;;;2.85;;
18230;SDS011;9240;49.966;21.994;2024-02-21T11:36:46;7.97;;;2.50;;
18230;SDS011;9240;49.966;21.994;2024-02-21T11:39:12;8.75;;;2.25;;
18230;SDS011;9240;49.966;21.994;2024-02-21T11:41:38;5.40;;;2.03;;
18230;SDS011;9240;49.966;21.994;2024-02-21T11:44:03;4.38;;;2.13;;
18230;SDS011;9240;49.966;21.994;2024-02-21T11:46:30;7.90;;;2.65;;
18230;SDS011;9240;49.966;21.994;2024-02-21T11:48:56;7.95;;;2.72;;
18230;SDS011;9240;49.966;21.994;2024-02-21T11:51:24;6.63;;;2.55;;
18230;SDS011;9240;49.966;21.994;2024-02-21T11:53:50;7.35;;;2.30;;
18230;SDS011;9240;49.966;21.994;2024-02-21T11:56:16;7.60;;;2.67;;
18230;SDS011;9240;49.966;21.994;2024-02-21T11:58:41;6.03;;;2.45;;
18230;SDS011;9240;49.966;21.994;2024-02-21T12:01:07;4.57;;;2.17;;
18230;SDS011;9240;49.966;21.994;2024-02-21T12:03:34;6.35;;;2.60;;
18230;SDS011;9240;49.966;21.994;2024-02-21T12:06:00;5.68;;;2.15;;
18230;SDS011;9240;49.966;21.994;2024-02-21T12:08:25;6.57;;;2.47;;
18230;SDS011;9240;49.966;21.994;2024-02-21T12:10:51;8.35;;;2.67;;
18230;SDS011;9240;49.966;21.994;2024-02-21T12:13:16;5.78;;;2.30;;
18230;SDS011;9240;49.966;21.994;2024-02-21T12:15:42;4.65;;;2.20;;
18230;SDS011;9240;49.966;21.994;2024-02-21T12:18:12;5.40;;;2.00;;
18230;SDS011;9240;49.966;21.994;2024-02-21T12:20:39;4.78;;;2.00;;
18230;SDS011;9240;49.966;21.994;2024-02-21T12:23:08;7.13;;;2.35;;
18230;SDS011;9240;49.966;21.994;2024-02-21T12:25:34;9.50;;;2.63;;
18230;SDS011;9240;49.966;21.994;2024-02-21T12:27:59;5.68;;;2.30;;
18230;SDS011;9240;49.966;21.994;2024-02-21T12:30:25;4.05;;;1.90;;
18230;SDS011;9240;49.966;21.994;2024-02-21T12:32:51;5.32;;;2.17;;
18230;SDS011;9240;49.966;21.994;2024-02-21T12:35:16;7.13;;;2.30;;
18230;SDS011;9240;49.966;21.994;2024-02-21T12:37:43;4.82;;;1.95;;
18230;SDS011;9240;49.966;21.994;2024-02-21T12:40:09;8.70;;;2.40;;
18230;SDS011;9240;49.966;21.994;2024-02-21T12:42:35;5.47;;;2.40;;
18230;SDS011;9240;49.966;21.994;2024-02-21T12:45:01;6.38;;;2.47;;
18230;SDS011;9240;49.966;21.994;2024-02-21T12:47:27;10.00;;;5.18;;
18230;SDS011;9240;49.966;21.994;2024-02-21T12:49:53;21.45;;;11.63;;
18230;SDS011;9240;49.966;21.994;2024-02-21T12:52:18;12.02;;;5.00;;
18230;SDS011;9240;49.966;21.994;2024-02-21T12:54:45;9.48;;;4.45;;
18230;SDS011;9240;49.966;21.994;2024-02-21T12:57:11;79.68;;;36.17;;
18230;SDS011;9240;49.966;21.994;2024-02-21T12:59:37;27.27;;;12.32;;
18230;SDS011;9240;49.966;21.994;2024-02-21T13:02:02;7.15;;;3.40;;
18230;SDS011;9240;49.966;21.994;2024-02-21T13:04:28;62.40;;;24.85;;
18230;SDS011;9240;49.966;21.994;2024-02-21T13:06:53;133.13;;;56.00;;
18230;SDS011;9240;49.966;21.994;2024-02-21T13:09:19;12.02;;;4.65;;
18230;SDS011;9240;49.966;21.994;2024-02-21T13:11:46;70.13;;;29.48;;
18230;SDS011;9240;49.966;21.994;2024-02-21T13:14:12;33.70;;;16.63;;
18230;SDS011;9240;49.966;21.994;2024-02-21T13:16:38;5.80;;;2.70;;
18230;SDS011;9240;49.966;21.994;2024-02-21T13:19:03;44.33;;;24.55;;
18230;SDS011;9240;49.966;21.994;2024-02-21T13:21:29;18.67;;;12.80;;
18230;SDS011;9240;49.966;21.994;2024-02-21T13:23:54;6.85;;;2.60;;
18230;SDS011;9240;49.966;21.994;2024-02-21T13:26:20;4.32;;;2.05;;
18230;SDS011;9240;49.966;21.994;2024-02-21T13:28:47;3.70;;;2.10;;
18230;SDS011;9240;49.966;21.994;2024-02-21T13:31:12;6.30;;;2.17;;
18230;SDS011;9240;49.966;21.994;2024-02-21T13:33:38;4.53;;;2.10;;
18230;SDS011;9240;49.966;21.994;2024-02-21T13:36:04;4.35;;;2.25;;
18230;SDS011;9240;49.966;21.994;2024-02-21T13:38:30;5.45;;;2.25;;
18230;SDS011;9240;49.966;21.994;2024-02-21T13:40:56;7.22;;;2.28;;
18230;SDS011;9240;49.966;21.994;2024-02-21T13:43:21;4.97;;;2.28;;
18230;SDS011;9240;49.966;21.994;2024-02-21T13:45:55;8.52;;;3.25;;
18230;SDS011;9240;49.966;21.994;2024-02-21T13:48:21;8.00;;;3.45;;
18230;SDS011;9240;49.966;21.994;2024-02-21T13:50:47;4.70;;;2.25;;
18230;SDS011;9240;49.966;21.994;2024-02-21T13:53:12;5.82;;;2.35;;
18230;SDS011;9240;49.966;21.994;2024-02-21T13:55:38;7.18;;;2.53;;
18230;SDS011;9240;49.966;21.994;2024-02-21T13:58:03;4.75;;;2.35;;
18230;SDS011;9240;49.966;21.994;2024-02-21T14:00:29;4.18;;;2.22;;
18230;SDS011;9240;49.966;21.994;2024-02-21T14:02:56;10.45;;;2.60;;
18230;SDS011;9240;49.966;21.994;2024-02-21T14:05:21;4.95;;;2.15;;
18230;SDS011;9240;49.966;21.994;2024-02-21T14:07:47;4.47;;;2.20;;
18230;SDS011;9240;49.966;21.994;2024-02-21T14:10:13;11.15;;;2.28;;
18230;SDS011;9240;49.966;21.994;2024-02-21T14:12:38;3.45;;;1.90;;
18230;SDS011;9240;49.966;21.994;2024-02-21T14:15:04;6.70;;;2.10;;
18230;SDS011;9240;49.966;21.994;2024-02-21T14:17:30;4.70;;;2.42;;
18230;SDS011;9240;49.966;21.994;2024-02-21T14:19:57;3.72;;;1.90;;
18230;SDS011;9240;49.966;21.994;2024-02-21T14:22:22;4.80;;;1.90;;
18230;SDS011;9240;49.966;21.994;2024-02-21T14:24:48;6.10;;;1.98;;
18230;SDS011;9240;49.966;21.994;2024-02-21T14:27:14;3.38;;;1.60;;
18230;SDS011;9240;49.966;21.994;2024-02-21T14:29:39;4.63;;;2.00;;
18230;SDS011;9240;49.966;21.994;2024-02-21T14:32:05;4.20;;;1.70;;